UMMS/MSQ METAR and TAF weather

Enter ICAO airport designator
Station Type Date Time Source
UMMS METAR 2019/10/21 05:19 UTC NOAA

UMMS 210519Z 14001MPS 0600 0200S R13L/0325 R13R/P2000 FG SCT001 06/06 Q1019 R88/CLRD// NOSIG RMK QBB040


Station Type Date Time Source
UMMS Decoded METAR 2019/10/21 05:19 UTC NOAA

Minsk, Belarus (UMMS) 53-56N 027-38E 231M
Oct 21, 2019 - 01:19 AM EDT / 2019.10.21 0519 UTC
Wind: from the SE (140 degrees) at 2 MPH (2 KT):0
Visibility: less than 1 mile:0
Sky conditions: partly cloudy
Weather: fog
Temperature: 42 F (6 C)
Dew Point: 42 F (6 C)
Relative Humidity: 100%
Pressure (altimeter): 30.09 in. Hg (1019 hPa)
ob: UMMS 210519Z 14001MPS 0600 0200S R13L/0325 R13R/P2000 FG SCT001 06/06 Q1019 R88/CLRD// NOSIG RMK QBB040
cycle: 5

Station Type Date Time Source
UMMS TAF 2019/10/21 05:24 UTC NOAA

TAF TAF UMMS 210504Z 2105/2206 VRB02MPS 0300 FG SCT001
BECMG 2106/2108 20006MPS 9999 NSW SCT020
BECMG 2117/2119 2000 BR SCT004
TEMPO 2120/2206 0300 FG VV002

Example: see airport list